createdAt,value
2022-09-23T00:00:45.790Z,7.52
2022-09-23T00:03:50.254Z,7.56
2022-09-23T00:06:54.446Z,7.57
2022-09-23T00:09:57.194Z,7.51
2022-09-23T00:13:00.434Z,7.49
2022-09-23T00:16:05.116Z,7.50
2022-09-23T00:19:07.814Z,7.49
2022-09-23T00:22:12.275Z,7.49
2022-09-23T00:25:14.871Z,7.50
2022-09-23T00:28:17.826Z,7.48
2022-09-23T00:31:23.210Z,7.42
2022-09-23T00:34:26.105Z,7.38
2022-09-23T00:37:30.379Z,7.39
2022-09-23T00:40:33.364Z,7.42
2022-09-23T00:43:43.620Z,7.42
2022-09-23T00:46:46.415Z,7.38
2022-09-23T00:49:55.275Z,7.42
2022-09-23T00:53:01.767Z,7.38
2022-09-23T00:56:07.914Z,7.33
2022-09-23T00:59:11.716Z,7.31
2022-09-23T01:02:18.475Z,7.27
2022-09-23T01:05:24.469Z,7.29
2022-09-23T01:08:29.236Z,7.27
2022-09-23T01:11:41.184Z,7.31
2022-09-23T01:14:50.230Z,7.27
2022-09-23T01:18:00.854Z,7.24
2022-09-23T01:21:14.918Z,7.25
2022-09-23T01:24:46.342Z,7.24
2022-09-23T01:28:06.741Z,7.24
2022-09-23T01:31:17.480Z,7.24
2022-09-23T01:34:27.500Z,7.24
2022-09-23T01:37:37.648Z,7.17
2022-09-23T01:40:50.111Z,7.04
2022-09-23T01:44:01.789Z,7.02
2022-09-23T01:47:12.756Z,7.05
2022-09-23T01:50:37.864Z,7.06
2022-09-23T01:53:46.765Z,7.01
2022-09-23T01:56:56.203Z,7.04
2022-09-23T02:00:05.327Z,7.00
2022-09-23T02:03:15.690Z,6.94
2022-09-23T02:06:24.490Z,6.88
2022-09-23T02:09:32.742Z,6.87
2022-09-23T02:12:38.744Z,6.84
2022-09-23T02:15:47.287Z,6.87
2022-09-23T02:18:57.002Z,6.85
2022-09-23T02:22:10.430Z,6.77
2022-09-23T02:25:16.222Z,6.77
2022-09-23T02:28:32.452Z,6.83
2022-09-23T02:31:40.301Z,6.71
2022-09-23T02:34:48.053Z,6.70
2022-09-23T02:37:58.866Z,6.73
2022-09-23T02:41:09.392Z,6.78
2022-09-23T02:44:16.117Z,6.75
2022-09-23T02:47:25.882Z,6.72
2022-09-23T02:50:30.899Z,6.64
2022-09-23T02:53:34.534Z,6.66
2022-09-23T02:56:38.170Z,6.61
2022-09-23T02:59:40.981Z,6.58
2022-09-23T03:03:02.748Z,6.62
2022-09-23T03:06:17.393Z,6.62
2022-09-23T03:09:26.643Z,6.62
2022-09-23T03:12:41.903Z,6.63
2022-09-23T03:15:53.361Z,6.66
2022-09-23T03:19:02.887Z,6.68
2022-09-23T03:22:11.491Z,6.75
2022-09-23T03:25:19.229Z,6.72
2022-09-23T03:28:25.519Z,6.70
2022-09-23T03:31:28.291Z,6.65
2022-09-23T03:34:34.791Z,6.64
2022-09-23T03:37:44.699Z,6.63
2022-09-23T03:40:50.936Z,6.60
2022-09-23T03:43:53.961Z,6.52
2022-09-23T03:47:02.388Z,6.51
2022-09-23T03:50:05.728Z,6.51
2022-09-23T03:53:09.744Z,6.56
2022-09-23T03:56:12.310Z,6.54
2022-09-23T03:59:19.671Z,6.52
2022-09-23T04:02:22.363Z,6.44
2022-09-23T04:05:25.187Z,6.42
2022-09-23T04:08:29.136Z,6.45
2022-09-23T04:11:32.046Z,6.43
2022-09-23T04:14:34.791Z,6.40
2022-09-23T04:17:37.662Z,6.40
2022-09-23T04:20:40.335Z,6.36
2022-09-23T04:23:44.733Z,6.37
2022-09-23T04:26:47.311Z,6.30
2022-09-23T04:29:50.237Z,6.31
2022-09-23T04:32:53.357Z,6.18
2022-09-23T04:35:56.841Z,6.13
2022-09-23T04:39:00.792Z,6.12
2022-09-23T04:42:04.173Z,6.10
2022-09-23T04:45:07.614Z,6.10
2022-09-23T04:48:10.650Z,6.15
2022-09-23T04:51:15.415Z,6.08
2022-09-23T04:54:19.368Z,6.07
2022-09-23T04:57:21.929Z,6.12
2022-09-23T05:00:24.615Z,6.13
2022-09-23T05:03:27.255Z,6.10
2022-09-23T05:06:32.312Z,6.09
2022-09-23T05:09:36.328Z,6.06
2022-09-23T05:12:39.054Z,6.00
2022-09-23T05:15:41.588Z,6.04
2022-09-23T05:18:45.254Z,6.06
2022-09-23T05:21:47.974Z,6.08
2022-09-23T05:24:52.046Z,6.08
2022-09-23T05:27:54.614Z,6.03
2022-09-23T05:31:03.267Z,6.10
2022-09-23T05:34:06.905Z,6.16
2022-09-23T05:37:09.793Z,6.17
2022-09-23T05:40:13.855Z,6.25
2022-09-23T05:43:17.517Z,6.37
2022-09-23T05:46:23.274Z,6.43
2022-09-23T05:49:42.621Z,6.45
2022-09-23T05:52:48.721Z,6.58
2022-09-23T05:55:54.539Z,6.83
2022-09-23T05:58:58.946Z,7.42
2022-09-23T06:02:01.909Z,8.04
2022-09-23T06:05:04.803Z,8.59
2022-09-23T06:08:08.231Z,9.01
2022-09-23T06:11:12.504Z,9.51
2022-09-23T06:14:15.635Z,9.88
2022-09-23T06:17:18.304Z,10.38
2022-09-23T06:20:20.973Z,10.69
2022-09-23T06:23:26.103Z,11.05
2022-09-23T06:26:33.739Z,11.23
2022-09-23T06:29:36.933Z,11.67
2022-09-23T06:32:39.835Z,12.24
2022-09-23T06:35:47.569Z,12.77
2022-09-23T06:38:56.390Z,13.26
2022-09-23T06:42:00.340Z,13.63
2022-09-23T06:45:03.171Z,13.99
2022-09-23T06:48:08.283Z,14.23
2022-09-23T06:51:19.058Z,14.72
2022-09-23T06:54:21.695Z,15.14
2022-09-23T06:57:25.662Z,15.52
2022-09-23T07:00:29.129Z,16.07
2022-09-23T07:03:32.116Z,16.28
2022-09-23T07:06:34.744Z,16.60
2022-09-23T07:09:37.751Z,16.94
2022-09-23T07:12:42.182Z,17.15
2022-09-23T07:15:50.700Z,17.15
2022-09-23T07:18:53.560Z,17.34
2022-09-23T07:21:57.007Z,17.58
2022-09-23T07:24:59.764Z,17.64
2022-09-23T07:28:04.035Z,17.68
2022-09-23T07:31:09.785Z,17.36
2022-09-23T07:34:12.815Z,17.16
2022-09-23T07:37:16.481Z,17.49
2022-09-23T07:40:19.299Z,17.75
2022-09-23T07:43:23.477Z,18.11
2022-09-23T07:46:28.146Z,18.35
2022-09-23T07:49:30.772Z,18.27
2022-09-23T07:52:33.420Z,18.17
2022-09-23T07:55:36.656Z,17.94
2022-09-23T07:58:40.549Z,18.15
2022-09-23T08:01:46.307Z,18.21
2022-09-23T08:04:50.335Z,18.22
2022-09-23T08:07:53.025Z,18.50
2022-09-23T08:11:02.579Z,18.75
2022-09-23T08:14:08.611Z,18.52
2022-09-23T08:17:12.952Z,18.38
2022-09-23T08:20:35.630Z,18.44
2022-09-23T08:23:38.261Z,18.21
2022-09-23T08:26:40.851Z,18.01
2022-09-23T08:29:44.786Z,17.97
2022-09-23T08:32:51.403Z,17.93
2022-09-23T08:35:59.253Z,17.81
2022-09-23T08:39:01.947Z,17.64
2022-09-23T08:42:17.558Z,17.45
2022-09-23T08:45:24.318Z,17.29
2022-09-23T08:48:30.622Z,17.21
2022-09-23T08:51:40.369Z,17.47
2022-09-23T08:54:44.656Z,17.26
2022-09-23T09:01:34.655Z,17.24
2022-09-23T09:04:44.482Z,17.05
2022-09-23T09:07:47.368Z,17.19
2022-09-23T09:10:50.436Z,17.36
2022-09-23T09:14:02.393Z,17.33
2022-09-23T09:17:10.640Z,17.48
2022-09-23T09:20:23.367Z,17.44
2022-09-23T09:23:34.826Z,17.64
2022-09-23T09:26:41.008Z,17.89
2022-09-23T09:29:49.918Z,18.10
2022-09-23T09:33:00.967Z,18.30
2022-09-23T09:36:16.132Z,18.60
2022-09-23T09:39:22.891Z,18.85
2022-09-23T09:42:39.095Z,19.50
2022-09-23T09:45:59.213Z,20.12
2022-09-23T09:49:09.407Z,20.22
2022-09-23T09:52:14.109Z,20.47
2022-09-23T09:55:26.355Z,20.68
2022-09-23T09:58:33.511Z,21.00
2022-09-23T10:01:36.847Z,20.85
2022-09-23T10:04:41.785Z,20.81
2022-09-23T10:07:44.355Z,20.83
2022-09-23T10:10:55.009Z,20.98
2022-09-23T10:14:10.982Z,20.87
2022-09-23T10:17:20.488Z,21.21
2022-09-23T10:20:24.833Z,21.19
2022-09-23T10:23:33.216Z,21.25
2022-09-23T10:26:43.218Z,21.27
2022-09-23T10:29:51.759Z,21.46
2022-09-23T10:32:57.126Z,21.20
2022-09-23T10:36:01.646Z,21.48
2022-09-23T10:39:23.766Z,21.68
2022-09-23T10:43:01.125Z,21.92
2022-09-23T10:46:24.576Z,21.32
2022-09-23T10:49:43.832Z,21.34
2022-09-23T10:52:57.440Z,21.79
2022-09-23T10:56:16.792Z,21.56
2022-09-23T10:59:50.213Z,21.40
2022-09-23T11:03:17.820Z,21.33
2022-09-23T11:06:26.869Z,21.01
2022-09-23T11:09:41.333Z,20.93
2022-09-23T11:12:53.916Z,20.89
2022-09-23T11:16:04.646Z,21.39
2022-09-23T11:19:23.489Z,21.41
2022-09-23T11:22:43.875Z,21.55
2022-09-23T11:25:56.016Z,21.65
2022-09-23T11:29:14.565Z,21.65
2022-09-23T11:32:35.529Z,21.82
2022-09-23T11:35:45.954Z,21.61
2022-09-23T11:38:52.372Z,21.79
2022-09-23T11:42:00.767Z,21.97
2022-09-23T11:45:10.865Z,22.31
2022-09-23T11:48:18.207Z,22.13
2022-09-23T11:51:25.679Z,22.28
2022-09-23T11:54:32.878Z,22.60
2022-09-23T11:57:48.936Z,22.34
2022-09-23T12:01:01.310Z,22.32
2022-09-23T12:04:18.609Z,22.29
2022-09-23T12:07:30.099Z,22.35
2022-09-23T12:10:44.851Z,22.50
2022-09-23T12:13:56.402Z,22.12
2022-09-23T12:17:16.110Z,22.13
2022-09-23T12:20:42.940Z,22.07
2022-09-23T12:24:03.100Z,22.00
2022-09-23T12:27:10.985Z,21.97
2022-09-23T12:30:20.284Z,22.02
2022-09-23T12:33:26.603Z,21.92
2022-09-23T12:36:34.730Z,22.02
2022-09-23T12:39:39.256Z,22.07
2022-09-23T12:42:46.115Z,22.08
2022-09-23T12:45:50.813Z,21.91
2022-09-23T12:49:02.231Z,21.49
2022-09-23T12:52:25.071Z,21.31
2022-09-23T12:55:51.704Z,21.50
2022-09-23T12:59:14.197Z,21.41
2022-09-23T13:02:28.556Z,21.26
2022-09-23T13:05:57.107Z,21.23
2022-09-23T13:09:02.590Z,21.25
2022-09-23T13:12:09.667Z,21.24
2022-09-23T13:15:21.426Z,20.98
2022-09-23T13:18:59.725Z,20.88
2022-09-23T13:22:09.398Z,20.64
2022-09-23T13:25:20.834Z,20.56
2022-09-23T13:28:31.047Z,20.67
2022-09-23T13:31:35.354Z,20.49
2022-09-23T13:34:41.496Z,20.56
2022-09-23T13:37:47.695Z,20.53
2022-09-23T13:40:50.873Z,20.66
2022-09-23T13:43:58.504Z,20.45
2022-09-23T13:47:03.782Z,20.45
2022-09-23T13:50:17.501Z,20.36
2022-09-23T13:53:25.424Z,20.28
2022-09-23T13:56:30.405Z,20.19
2022-09-23T13:59:39.334Z,20.21
2022-09-23T14:02:43.395Z,20.14
2022-09-23T14:05:49.124Z,20.17
2022-09-23T14:08:51.829Z,20.10
2022-09-23T14:11:57.157Z,19.96
2022-09-23T14:14:59.788Z,19.85
2022-09-23T14:18:07.185Z,19.70
2022-09-23T14:21:30.356Z,19.57
2022-09-23T14:24:35.572Z,19.47
2022-09-23T14:27:39.685Z,19.42
2022-09-23T14:30:44.022Z,19.52
2022-09-23T14:33:46.893Z,19.49
2022-09-23T14:37:09.391Z,19.32
2022-09-23T14:40:17.892Z,19.24
2022-09-23T14:43:25.120Z,19.12
2022-09-23T14:46:29.341Z,19.14
2022-09-23T14:49:35.429Z,18.93
2022-09-23T14:52:48.951Z,18.99
2022-09-23T14:55:57.388Z,18.72
2022-09-23T14:59:01.683Z,18.64
2022-09-23T15:02:28.999Z,18.71
2022-09-23T15:05:40.309Z,18.67
2022-09-23T15:08:46.509Z,18.55
2022-09-23T15:11:49.144Z,18.58
2022-09-23T15:14:54.969Z,18.51
2022-09-23T15:18:05.760Z,18.47
2022-09-23T15:21:11.529Z,18.39
2022-09-23T15:24:39.188Z,18.36
2022-09-23T15:27:42.070Z,18.27
2022-09-23T15:30:45.311Z,18.26
2022-09-23T15:33:48.672Z,18.24
2022-09-23T15:36:51.300Z,18.22
2022-09-23T15:39:55.538Z,18.21
2022-09-23T15:43:00.650Z,18.13
2022-09-23T15:46:09.253Z,18.10
2022-09-23T15:49:23.057Z,18.00
2022-09-23T15:52:26.511Z,17.89
2022-09-23T15:55:31.564Z,17.86
2022-09-23T15:58:34.461Z,17.79
2022-09-23T16:01:38.423Z,17.74
2022-09-23T16:04:42.075Z,17.72
2022-09-23T16:07:45.303Z,17.65
2022-09-23T16:10:49.323Z,17.58
2022-09-23T16:13:52.238Z,17.53
2022-09-23T16:16:54.931Z,17.49
2022-09-23T16:19:57.695Z,17.46
2022-09-23T16:23:03.183Z,17.44
2022-09-23T16:26:09.553Z,17.36
2022-09-23T16:29:12.442Z,17.28
2022-09-23T16:32:18.900Z,17.21
2022-09-23T16:35:26.646Z,17.14
2022-09-23T16:38:29.939Z,17.09
2022-09-23T16:41:34.320Z,17.01
2022-09-23T16:44:37.391Z,16.93
2022-09-23T16:47:44.345Z,16.80
2022-09-23T16:50:47.654Z,16.68
2022-09-23T16:53:51.604Z,16.58
2022-09-23T16:56:55.503Z,16.48
2022-09-23T17:00:16.150Z,16.35
2022-09-23T17:03:36.247Z,16.22
2022-09-23T17:06:44.183Z,16.12
2022-09-23T17:09:46.916Z,16.00
2022-09-23T17:12:52.632Z,15.88
2022-09-23T17:15:55.646Z,15.76
2022-09-23T17:18:58.754Z,15.61
2022-09-23T17:22:01.305Z,15.50
2022-09-23T17:25:04.397Z,15.38
2022-09-23T17:28:08.453Z,15.25
2022-09-23T17:31:11.244Z,15.16
2022-09-23T17:34:13.832Z,15.07
2022-09-23T17:37:16.920Z,14.98
2022-09-23T17:40:19.538Z,14.82
2022-09-23T17:43:25.038Z,14.73
2022-09-23T17:46:29.131Z,14.64
2022-09-23T17:49:35.428Z,14.55
2022-09-23T17:52:38.230Z,14.41
2022-09-23T17:55:40.929Z,14.30
2022-09-23T17:58:45.960Z,14.20
2022-09-23T18:01:48.618Z,14.11
2022-09-23T18:04:51.248Z,14.04
2022-09-23T18:07:53.983Z,13.99
2022-09-23T18:10:56.541Z,13.88
2022-09-23T18:14:02.125Z,13.86
2022-09-23T18:17:04.721Z,13.78
2022-09-23T18:20:09.174Z,13.79
2022-09-23T18:23:12.153Z,13.78
2022-09-23T18:26:16.175Z,13.79
2022-09-23T18:29:20.292Z,13.80
2022-09-23T18:32:22.887Z,13.74
2022-09-23T18:35:25.441Z,13.72
2022-09-23T18:38:28.283Z,13.69
2022-09-23T18:41:31.340Z,13.66
2022-09-23T18:44:35.711Z,13.62
2022-09-23T18:48:10.929Z,13.63
2022-09-23T18:51:29.278Z,13.55
2022-09-23T18:54:32.044Z,13.49
2022-09-23T18:57:34.967Z,13.41
2022-09-23T19:00:39.446Z,13.37
2022-09-23T19:03:42.441Z,13.37
2022-09-23T19:06:45.355Z,13.58
2022-09-23T19:09:48.111Z,13.76
2022-09-23T19:12:50.991Z,13.72
2022-09-23T19:15:55.110Z,13.80
2022-09-23T19:18:57.719Z,13.76
2022-09-23T19:22:01.343Z,13.86
2022-09-23T19:25:04.359Z,13.97
2022-09-23T19:28:08.347Z,13.90
2022-09-23T19:31:13.959Z,13.78
2022-09-23T19:34:18.590Z,13.78
2022-09-23T19:37:21.251Z,13.83
2022-09-23T19:40:23.938Z,13.90
2022-09-23T19:43:28.201Z,14.05
2022-09-23T19:46:33.359Z,14.08
2022-09-23T19:49:36.184Z,14.06
2022-09-23T19:52:39.157Z,14.08
2022-09-23T19:55:42.860Z,14.05
2022-09-23T19:58:47.219Z,14.05
2022-09-23T20:01:51.212Z,13.93
2022-09-23T20:04:54.171Z,13.85
2022-09-23T20:07:58.917Z,13.98
2022-09-23T20:11:11.264Z,14.00
2022-09-23T20:14:13.907Z,13.76
2022-09-23T20:17:19.215Z,13.75
2022-09-23T20:20:21.784Z,13.90
2022-09-23T20:23:24.575Z,13.96
2022-09-23T20:26:44.766Z,13.95
2022-09-23T20:29:48.631Z,13.94
2022-09-23T20:32:52.568Z,13.93
2022-09-23T20:35:57.125Z,13.96
2022-09-23T20:39:01.397Z,13.94
2022-09-23T20:42:04.407Z,13.88
2022-09-23T20:45:08.238Z,13.82
2022-09-23T20:48:12.967Z,13.78
2022-09-23T20:51:15.779Z,13.82
2022-09-23T20:54:19.542Z,13.79
2022-09-23T20:57:22.097Z,13.79
2022-09-23T21:00:24.846Z,13.71
2022-09-23T21:03:29.365Z,13.75
2022-09-23T21:06:32.688Z,13.76
2022-09-23T21:09:35.303Z,13.74
2022-09-23T21:12:38.006Z,13.69
2022-09-23T21:15:41.892Z,13.66
2022-09-23T21:18:46.898Z,13.74
2022-09-23T21:21:49.515Z,13.84
2022-09-23T21:25:26.270Z,13.83
2022-09-23T21:28:15.756Z,13.84
2022-09-23T21:31:23.789Z,13.93
2022-09-23T21:34:30.101Z,13.92
2022-09-23T21:37:32.951Z,13.90
2022-09-23T21:40:53.393Z,13.89
2022-09-23T21:43:57.784Z,13.89
2022-09-23T21:47:00.469Z,13.85
2022-09-23T21:50:05.172Z,13.86
2022-09-23T21:53:08.805Z,13.88
2022-09-23T21:56:18.065Z,13.91
2022-09-23T21:59:23.056Z,13.91
2022-09-23T22:02:25.775Z,13.88
2022-09-23T22:05:29.759Z,13.68
2022-09-23T22:08:37.054Z,13.66
2022-09-23T22:11:58.601Z,13.66
2022-09-23T22:15:01.191Z,13.73
2022-09-23T22:18:05.559Z,13.65
2022-09-23T22:21:09.954Z,13.60
2022-09-23T22:24:13.803Z,13.71
2022-09-23T22:27:18.905Z,13.67
2022-09-23T22:30:38.975Z,13.59
2022-09-23T22:33:41.701Z,13.48
2022-09-23T22:36:45.672Z,13.49
2022-09-23T22:39:48.684Z,13.62
2022-09-23T22:42:51.503Z,13.64
2022-09-23T22:45:54.110Z,13.63
2022-09-23T22:48:56.979Z,13.60
2022-09-23T22:52:01.415Z,13.63
2022-09-23T22:55:04.620Z,13.58
2022-09-23T22:58:30.817Z,13.62
2022-09-23T23:01:30.656Z,13.58
2022-09-23T23:04:33.865Z,13.61
2022-09-23T23:07:37.966Z,13.68
2022-09-23T23:10:41.017Z,13.66
2022-09-23T23:13:44.255Z,13.65
2022-09-23T23:16:47.331Z,13.69
2022-09-23T23:19:50.725Z,13.63
2022-09-23T23:22:55.053Z,13.53
2022-09-23T23:25:57.871Z,13.51
2022-09-23T23:29:01.517Z,13.41
2022-09-23T23:32:05.186Z,13.50
2022-09-23T23:35:08.962Z,13.61
2022-09-23T23:38:13.018Z,13.67
2022-09-23T23:41:17.638Z,13.60
2022-09-23T23:44:20.375Z,13.59
2022-09-23T23:47:23.423Z,13.61
2022-09-23T23:50:26.462Z,13.51
2022-09-23T23:53:33.855Z,13.45
2022-09-23T23:56:36.411Z,13.45
2022-09-23T23:59:39.118Z,13.54
